Latest Coastal Weather Observations for Bellambi

IDN60701

Issued at 4:42 pm EDT Thursday 25 February 2021 (issued every 10 minutes, with the page automatically refreshed every 10 minutes)

About coastal observations | Map of coastal stations | Coastal observations for NSW | Marine services | Other Formats
Station Details ID: 068228 Name: BELLAMBI AWS Lat: -34.37 Lon: 150.93 Height: 10.0 m
Data from the previous 72 hours. | See also: Recent months at Bellambi
Date/Time
EDT
Wind Sea
Height
m
Swell Vis
km
Cloud Weather Temp
°C
Press
MSL
hPa
Rain since
9am
mm
Dir  Spd
kts
Gust
kts
Height
m
Period
s
Dir
25/04:30pm N 15 18 - - - - - - - 20.6 - 0.0
25/04:00pm N 11 15 - - - - - - - 19.9 - 0.0
25/03:30pm NNE 7 10 - - - - - - - 20.1 - 0.0
25/03:00pm NNE 14 18 - - - - - - - 20.5 - 0.0
25/02:30pm NNW 5 7 - - - - - - - 20.3 - 0.0
25/02:00pm NNE 6 7 - - - - - - - 20.3 - 0.0
25/01:30pm NNE 4 5 - - - - - - - 20.5 - 0.0
25/01:00pm S 4 8 - - - - - - - 20.3 - 0.0
25/12:30pm SSE 3 7 - - - - - - - 19.7 - 0.0
25/12:00pm SSW 9 12 - - - - - - - 20.8 - 0.0
25/11:30am N 8 12 - - - - - - - 21.6 - 0.0
25/11:00am ENE 7 8 - - - - - - - 21.9 - 0.0
25/10:30am ESE 4 5 - - - - - - - 22.0 - 0.0
25/10:00am E 4 5 - - - - - - - 22.6 - 0.0
25/09:30am NNW 3 6 - - - - - - - 22.0 - 0.0
25/09:00am NW 5 6 - - - - - - - 20.4 - 0.4
25/08:30am W 5 7 - - - - - - - 19.9 - 0.4
25/08:00am WNW 8 11 - - - - - - - 19.6 - 0.4
25/07:30am SW 5 7 - - - - - - - 19.1 - 0.4
25/07:00am CALM 0 3 - - - - - - - 19.2 - 0.4
25/06:30am SSW 2 7 - - - - - - - 19.5 - 0.4
25/06:00am NNW 7 8 - - - - - - - 20.0 - 0.4
25/05:30am NNW 10 13 - - - - - - - 20.2 - 0.4
25/05:00am NNW 8 10 - - - - - - - 20.0 - 0.4
25/04:30am NNE 4 6 - - - - - - - 19.6 - 0.4
25/04:00am SW 1 5 - - - - - - - 18.8 - 0.4
25/03:30am CALM 0 0 - - - - - - - 18.5 - 0.4
25/03:00am SSW 3 4 - - - - - - - 18.9 - 0.4
25/02:30am SW 4 6 - - - - - - - 18.7 - 0.4
25/02:00am WSW 5 7 - - - - - - - 18.7 - 0.4
25/01:30am WSW 5 6 - - - - - - - 18.8 - 0.4
25/01:00am W 1 4 - - - - - - - 18.8 - 0.4
25/12:30am WSW 4 6 - - - - - - - 18.8 - 0.4
25/12:00am SSE 3 5 - - - - - - - 18.9 - 0.2
 
Date/Time
EDT
Wind Sea
Height
m
Swell Vis
km
Cloud Weather Temp
°C
Press
MSL
hPa
Rain since
9am
mm
Dir  Spd
kts
Gust
kts
Height
m
Period
s
Dir
24/11:30pm SSE 4 5 - - - - - - - 18.7 - 0.2
24/11:00pm SSE 4 5 - - - - - - - 19.3 - 0.2
24/10:30pm S 5 6 - - - - - - - 19.4 - 0.2
24/10:00pm WNW 3 4 - - - - - - - 19.1 - 0.2
24/09:30pm WNW 4 4 - - - - - - - 19.0 - 0.2
24/09:00pm WNW 3 4 - - - - - - - 19.0 - 0.2
24/08:30pm CALM 0 0 - - - - - - - 19.1 - 0.2
24/08:00pm W 4 5 - - - - - - - 19.0 - 0.2
24/07:30pm WSW 3 5 - - - - - - - 19.2 - 0.2
24/07:00pm SSW 8 11 - - - - - - - 19.4 - 0.2
24/06:30pm S 10 12 - - - - - - - 19.7 - 0.2
24/06:00pm S 12 14 - - - - - - - 19.9 - 0.2
24/05:30pm SSW 8 11 - - - - - - - 19.9 - 0.2
24/05:00pm SW 7 11 - - - - - - - 19.3 - 0.2
24/04:30pm SSW 13 17 - - - - - - - 19.7 - 0.2
24/04:00pm SSW 13 16 - - - - - - - 20.1 - 0.2
24/03:30pm SSW 10 13 - - - - - - - 19.1 - 0.2
24/03:00pm S 15 17 - - - - - - Recent precip. 19.7 - 0.2
24/02:30pm SSW 15 18 - - - - - - - 20.0 - 0.0
24/02:00pm S 14 16 - - - - - - - 20.6 - 0.0
24/01:30pm S 13 16 - - - - - - - 20.1 - 0.0
24/01:00pm SSW 11 13 - - - - - - - 19.7 - 0.0
24/12:30pm SSW 12 15 - - - - - - - 19.5 - 0.0
24/12:00pm SSW 10 13 - - - - - - - 19.5 - 0.0
24/11:30am SSW 11 14 - - - - - - - 20.3 - 0.0
24/11:00am SSW 10 13 - - - - - Partly cloudy - 19.1 - 0.0
24/10:30am SW 11 15 - - - - - Partly cloudy - 19.5 - 0.0
24/10:00am SSW 12 16 - - - - - Partly cloudy - 19.3 - 0.0
24/09:30am SW 12 16 - - - - - Partly cloudy - 18.4 - 0.0
24/09:00am SSW 14 17 - - - - - Cloudy - 17.3 - 0.4
24/08:30am SW 11 15 - - - - - Partly cloudy - 16.2 - 0.4
24/08:00am SW 11 15 - - - - - Partly cloudy - 15.9 - 0.4
24/07:30am SW 11 13 - - - - - Partly cloudy - 15.8 - 0.2
24/07:00am SW 10 13 - - - - - Partly cloudy - 15.6 - 0.2
24/06:30am SW 9 11 - - - - - Partly cloudy - 15.8 - 0.2
24/06:00am SW 7 9 - - - - - Cloudy - 16.4 - 0.2
24/05:30am SW 9 11 - - - - - Partly cloudy - 16.9 - 0.2
24/05:00am SW 10 12 - - - - - Partly cloudy - 17.3 - 0.2
24/04:30am SW 11 15 - - - - - Partly cloudy - 17.2 - 0.0
24/04:00am SW 12 16 - - - - - Partly cloudy - 17.3 - 0.0
24/03:30am WSW 8 13 - - - - - Partly cloudy - 17.4 - 0.0
24/03:00am SW 9 13 - - - - - Cloudy - 17.7 - 0.0
24/02:30am SW 11 15 - - - - - Partly cloudy - 17.6 - 0.0
24/02:00am SW 11 15 - - - - - Partly cloudy - 17.6 - 0.0
24/01:30am SW 12 16 - - - - - Partly cloudy - 17.8 - 0.0
24/01:00am SW 11 15 - - - - - Partly cloudy - 17.8 - 0.0
24/12:30am SW 10 14 - - - - - Partly cloudy - 18.1 - 0.0
24/12:23am SW 11 14 - - - - - Partly cloudy - 18.1 - 0.0
24/12:00am SSW 22 26 - - - - - Cloudy - 19.5 - 0.0
 
Date/Time
EDT
Wind Sea
Height
m
Swell Vis
km
Cloud Weather Temp
°C
Press
MSL
hPa
Rain since
9am
mm
Dir  Spd
kts
Gust
kts
Height
m
Period
s
Dir
23/11:30pm S 21 25 - - - - - Partly cloudy - 19.5 - 0.0
23/11:00pm S 21 26 - - - - - Partly cloudy - 19.7 - 0.0
23/10:30pm S 23 29 - - - - - Partly cloudy - 19.4 - 0.0
23/10:00pm S 26 30 - - - - - Partly cloudy - 19.5 - 0.0
23/09:30pm S 25 30 - - - - - Partly cloudy - 19.9 - 0.0
23/09:00pm S 25 29 - - - - - Cloudy - 19.6 - 0.0
23/08:30pm S 26 32 - - - - - Partly cloudy - 19.9 - 0.0
23/08:00pm S 26 30 - - - - - Cloudy - 19.6 - 0.0
23/07:30pm S 25 30 - - - - - Partly cloudy - 19.7 - 0.0
23/07:00pm S 25 30 - - - - - Partly cloudy - 19.6 - 0.0
23/06:30pm S 24 30 - - - - - Partly cloudy - 19.5 - 0.0
23/06:00pm S 24 29 - - - - - Cloudy - 19.7 - 0.0
23/05:30pm S 24 28 - - - - - Partly cloudy - 19.6 - 0.0
23/05:00pm S 22 27 - - - - - Partly cloudy - 19.9 - 0.0
23/04:30pm SSW 21 27 - - - - - Partly cloudy - 19.7 - 0.0
23/04:00pm S 22 26 - - - - - Cloudy - 19.4 - 0.0
23/03:30pm S 23 28 - - - - - Cloudy - 19.6 - 0.0
23/03:00pm S 21 27 - - - - - Mostly cloudy - 19.4 - 0.0
23/02:30pm S 22 27 - - - - - Cloudy - 19.7 - 0.0
23/02:00pm S 21 25 - - - - - Partly cloudy - 19.9 - 0.0
23/01:30pm S 19 24 - - - - - Cloudy - 19.7 - 0.0
23/01:00pm SSW 19 23 - - - - - Partly cloudy - 19.1 - 0.0
23/12:30pm S 21 25 - - - - - Cloudy - 18.9 - 0.0
23/12:00pm S 21 25 - - - - - Cloudy - 19.0 - 0.0
23/11:30am S 22 27 - - - - - Cloudy - 18.9 - 0.0
23/11:00am SSW 19 24 - - - - - Partly cloudy - 18.5 - 0.0
23/10:30am SSW 19 24 - - - - - Partly cloudy - 18.7 - 0.0
23/10:00am SSW 16 20 - - - - - Partly cloudy - 18.9 - 0.0
23/09:30am SSW 17 25 - - - - - Partly cloudy - 18.7 - 0.0
23/09:00am SSW 15 22 - - - - - Cloudy - 18.3 - 0.4
23/08:30am SSW 15 21 - - - - - Cloudy - 18.4 - 0.4
23/08:00am SSW 16 22 - - - - - Cloudy - 18.8 - 0.4
23/07:30am SSW 14 20 - - - - - Cloudy - 19.1 - 0.4
23/07:00am SSW 13 17 - - - - - Partly cloudy - 18.9 - 0.4
23/06:30am SSW 15 18 - - - - - Partly cloudy - 19.3 - 0.4
23/06:00am SSW 13 17 - - - - - Mostly cloudy - 19.2 - 0.4
23/05:30am SSW 13 17 - - - - - Partly cloudy - 19.2 - 0.4
23/05:00am SSW 18 22 - - - - - Partly cloudy - 19.1 - 0.4
23/04:30am SSW 16 20 - - - - - Partly cloudy - 19.1 - 0.4
23/04:00am SSW 15 20 - - - - - Partly cloudy - 19.3 - 0.4
23/03:30am SSW 14 19 - - - - - Partly cloudy - 19.4 - 0.4
23/03:00am SSW 16 22 - - - - - Cloudy - 19.6 - 0.4
23/02:30am SSW 17 23 - - - - - Cloudy - 19.6 - 0.4
23/02:00am SSW 17 22 - - - - - Partly cloudy - 19.8 - 0.4
23/01:30am SSW 17 22 - - - - - Cloudy - 19.7 - 0.4
23/01:00am SSW 16 20 - - - - - Partly cloudy - 19.8 - 0.4
23/12:30am SSW 16 21 - - - - - Partly cloudy - 19.9 - 0.4
23/12:00am SSW 16 21 - - - - - Cloudy - 20.0 - 0.4
 
Date/Time
EDT
Wind Sea
Height
m
Swell Vis
km
Cloud Weather Temp
°C
Press
MSL
hPa
Rain since
9am
mm
Dir  Spd
kts
Gust
kts
Height
m
Period
s
Dir
22/11:30pm SSW 17 21 - - - - - Partly cloudy - 19.6 - 0.4
22/11:00pm SW 14 19 - - - - - Partly cloudy - 19.0 - 0.4
22/10:30pm SSW 20 25 - - - - - Partly cloudy - 19.1 - 0.2
22/10:00pm SSW 20 25 - - - - - Partly cloudy - 19.1 - 0.2
22/09:30pm SSW 21 26 - - - - - Partly cloudy - 19.1 - 0.2
22/09:00pm SSW 24 30 - - - - - Cloudy Recent precip. 19.0 - 0.2
22/08:30pm SSW 21 26 - - - - - Partly cloudy - 19.5 - 0.0
22/08:00pm SSW 23 30 - - - - - Partly cloudy - 19.8 - 0.0
22/07:54pm SSW 20 30 - - - - - Partly cloudy - 20.0 - 0.0
22/07:30pm SSW 19 24 - - - - - Partly cloudy - 20.4 - 0.0
22/07:00pm SSW 22 28 - - - - - Partly cloudy - 20.6 - 0.0
22/06:30pm SSW 21 25 - - - - - Partly cloudy - 20.8 - 0.0
22/06:03pm SSW 21 26 - - - - - Partly cloudy - 21.2 - 0.0
22/06:00pm SSW 22 26 - - - - - Cloudy - 21.1 - 0.0
22/05:30pm SSW 23 27 - - - - - Partly cloudy - 21.2 - 0.0
22/05:00pm SSW 19 23 - - - - - Cloudy - 21.5 - 0.0

Other formats

Comma delimited format used in spreadsheet applications
http://www.bom.gov.au/fwo/IDN60701/IDN60701.94749.axf

JavaScript Object Notation format (JSON) in row-major order
http://www.bom.gov.au/fwo/IDN60701/IDN60701.94749.json

Data quality

Most of these data are generated automatically and are frequently updated. Quality checks on data are not normally performed. It is possible for incorrect values to appear. Refer to information at About Latest Weather Observations and please check the disclaimer before using these data.